sensor_id;sensor_type;location;lat;lon;timestamp;P1;durP1;ratioP1;P2;durP2;ratioP2
26588;SDS011;14235;48.532;8.722;2023-12-28T00:01:25;10.27;;;6.10;;
26588;SDS011;14235;48.532;8.722;2023-12-28T00:03:51;7.60;;;6.07;;
26588;SDS011;14235;48.532;8.722;2023-12-28T00:06:17;6.50;;;5.53;;
26588;SDS011;14235;48.532;8.722;2023-12-28T00:08:42;5.70;;;5.00;;
26588;SDS011;14235;48.532;8.722;2023-12-28T00:11:08;7.33;;;5.43;;
26588;SDS011;14235;48.532;8.722;2023-12-28T00:13:34;7.63;;;5.00;;
26588;SDS011;14235;48.532;8.722;2023-12-28T00:15:59;6.50;;;4.80;;
26588;SDS011;14235;48.532;8.722;2023-12-28T00:18:25;6.97;;;5.10;;
26588;SDS011;14235;48.532;8.722;2023-12-28T00:20:51;8.30;;;5.00;;
26588;SDS011;14235;48.532;8.722;2023-12-28T00:23:16;5.17;;;4.23;;
26588;SDS011;14235;48.532;8.722;2023-12-28T00:25:42;5.40;;;4.65;;
26588;SDS011;14235;48.532;8.722;2023-12-28T00:28:09;5.57;;;4.23;;
26588;SDS011;14235;48.532;8.722;2023-12-28T00:30:35;5.10;;;4.43;;
26588;SDS011;14235;48.532;8.722;2023-12-28T00:33:01;5.27;;;4.37;;
26588;SDS011;14235;48.532;8.722;2023-12-28T00:35:27;4.85;;;3.95;;
26588;SDS011;14235;48.532;8.722;2023-12-28T00:37:53;4.82;;;4.32;;
26588;SDS011;14235;48.532;8.722;2023-12-28T00:40:19;4.50;;;4.05;;
26588;SDS011;14235;48.532;8.722;2023-12-28T00:42:45;5.32;;;3.60;;
26588;SDS011;14235;48.532;8.722;2023-12-28T00:45:11;6.50;;;4.00;;
26588;SDS011;14235;48.532;8.722;2023-12-28T00:47:36;5.38;;;4.35;;
26588;SDS011;14235;48.532;8.722;2023-12-28T00:50:02;4.70;;;4.30;;
26588;SDS011;14235;48.532;8.722;2023-12-28T00:52:28;6.13;;;4.33;;
26588;SDS011;14235;48.532;8.722;2023-12-28T00:54:53;6.07;;;4.78;;
26588;SDS011;14235;48.532;8.722;2023-12-28T00:57:19;6.17;;;4.63;;
26588;SDS011;14235;48.532;8.722;2023-12-28T00:59:45;5.97;;;4.53;;
26588;SDS011;14235;48.532;8.722;2023-12-28T01:02:13;4.40;;;3.90;;
26588;SDS011;14235;48.532;8.722;2023-12-28T01:04:42;4.80;;;4.10;;
26588;SDS011;14235;48.532;8.722;2023-12-28T01:07:10;5.97;;;4.43;;
26588;SDS011;14235;48.532;8.722;2023-12-28T01:09:36;6.47;;;4.77;;
26588;SDS011;14235;48.532;8.722;2023-12-28T01:12:02;3.90;;;3.50;;
26588;SDS011;14235;48.532;8.722;2023-12-28T01:14:29;9.43;;;4.57;;
26588;SDS011;14235;48.532;8.722;2023-12-28T01:16:55;4.53;;;3.67;;
26588;SDS011;14235;48.532;8.722;2023-12-28T01:19:22;4.57;;;3.80;;
26588;SDS011;14235;48.532;8.722;2023-12-28T01:21:48;6.03;;;4.43;;
26588;SDS011;14235;48.532;8.722;2023-12-28T01:24:15;8.57;;;6.43;;
26588;SDS011;14235;48.532;8.722;2023-12-28T01:26:41;7.57;;;5.50;;
26588;SDS011;14235;48.532;8.722;2023-12-28T01:29:08;9.67;;;6.57;;
26588;SDS011;14235;48.532;8.722;2023-12-28T01:31:34;8.40;;;6.57;;
26588;SDS011;14235;48.532;8.722;2023-12-28T01:34:00;11.93;;;6.73;;
26588;SDS011;14235;48.532;8.722;2023-12-28T01:36:27;8.00;;;5.87;;
26588;SDS011;14235;48.532;8.722;2023-12-28T01:38:54;7.63;;;5.87;;
26588;SDS011;14235;48.532;8.722;2023-12-28T01:41:21;7.60;;;5.73;;
26588;SDS011;14235;48.532;8.722;2023-12-28T01:43:47;7.83;;;6.33;;
26588;SDS011;14235;48.532;8.722;2023-12-28T01:46:15;9.33;;;5.57;;
26588;SDS011;14235;48.532;8.722;2023-12-28T01:48:42;9.63;;;5.43;;
26588;SDS011;14235;48.532;8.722;2023-12-28T01:51:10;5.87;;;4.83;;
26588;SDS011;14235;48.532;8.722;2023-12-28T01:53:37;6.60;;;5.17;;
26588;SDS011;14235;48.532;8.722;2023-12-28T01:56:04;6.63;;;4.80;;
26588;SDS011;14235;48.532;8.722;2023-12-28T01:58:32;8.87;;;5.73;;
26588;SDS011;14235;48.532;8.722;2023-12-28T02:00:58;8.50;;;6.47;;
26588;SDS011;14235;48.532;8.722;2023-12-28T02:03:25;7.30;;;5.33;;
26588;SDS011;14235;48.532;8.722;2023-12-28T02:05:51;6.80;;;5.27;;
26588;SDS011;14235;48.532;8.722;2023-12-28T02:08:18;7.70;;;5.40;;
26588;SDS011;14235;48.532;8.722;2023-12-28T02:10:45;9.33;;;5.77;;
26588;SDS011;14235;48.532;8.722;2023-12-28T02:13:11;9.23;;;5.60;;
26588;SDS011;14235;48.532;8.722;2023-12-28T02:15:37;9.63;;;5.67;;
26588;SDS011;14235;48.532;8.722;2023-12-28T02:18:05;8.20;;;5.43;;
26588;SDS011;14235;48.532;8.722;2023-12-28T02:20:43;7.97;;;5.63;;
26588;SDS011;14235;48.532;8.722;2023-12-28T02:23:09;8.00;;;5.27;;
26588;SDS011;14235;48.532;8.722;2023-12-28T02:25:35;8.73;;;5.40;;
26588;SDS011;14235;48.532;8.722;2023-12-28T02:28:00;5.77;;;5.03;;
26588;SDS011;14235;48.532;8.722;2023-12-28T02:30:27;6.77;;;5.30;;
26588;SDS011;14235;48.532;8.722;2023-12-28T02:36:03;8.00;;;4.90;;
26588;SDS011;14235;48.532;8.722;2023-12-28T02:38:32;6.37;;;4.77;;
26588;SDS011;14235;48.532;8.722;2023-12-28T02:41:01;6.40;;;4.83;;
26588;SDS011;14235;48.532;8.722;2023-12-28T02:43:28;6.00;;;4.23;;
26588;SDS011;14235;48.532;8.722;2023-12-28T02:45:54;8.63;;;5.80;;
26588;SDS011;14235;48.532;8.722;2023-12-28T02:48:19;5.80;;;4.77;;
26588;SDS011;14235;48.532;8.722;2023-12-28T02:50:45;7.88;;;5.07;;
26588;SDS011;14235;48.532;8.722;2023-12-28T02:53:11;6.17;;;4.97;;
26588;SDS011;14235;48.532;8.722;2023-12-28T02:55:38;7.10;;;4.97;;
26588;SDS011;14235;48.532;8.722;2023-12-28T02:58:03;5.53;;;4.73;;
26588;SDS011;14235;48.532;8.722;2023-12-28T03:00:30;7.60;;;4.67;;
26588;SDS011;14235;48.532;8.722;2023-12-28T03:02:55;6.93;;;4.60;;
26588;SDS011;14235;48.532;8.722;2023-12-28T03:05:21;5.63;;;4.63;;
26588;SDS011;14235;48.532;8.722;2023-12-28T03:07:47;5.03;;;4.30;;
26588;SDS011;14235;48.532;8.722;2023-12-28T03:10:12;6.70;;;4.40;;
26588;SDS011;14235;48.532;8.722;2023-12-28T03:12:38;6.80;;;4.40;;
26588;SDS011;14235;48.532;8.722;2023-12-28T03:15:04;6.43;;;4.10;;
26588;SDS011;14235;48.532;8.722;2023-12-28T03:17:31;5.97;;;4.27;;
26588;SDS011;14235;48.532;8.722;2023-12-28T03:20:01;5.07;;;4.00;;
26588;SDS011;14235;48.532;8.722;2023-12-28T03:22:26;6.07;;;3.90;;
26588;SDS011;14235;48.532;8.722;2023-12-28T03:24:52;5.70;;;3.83;;
26588;SDS011;14235;48.532;8.722;2023-12-28T03:27:18;5.97;;;3.80;;
26588;SDS011;14235;48.532;8.722;2023-12-28T03:29:43;4.13;;;3.70;;
26588;SDS011;14235;48.532;8.722;2023-12-28T03:32:09;5.50;;;4.00;;
26588;SDS011;14235;48.532;8.722;2023-12-28T03:34:35;6.83;;;4.10;;
26588;SDS011;14235;48.532;8.722;2023-12-28T03:37:00;6.47;;;4.13;;
26588;SDS011;14235;48.532;8.722;2023-12-28T03:39:26;6.83;;;3.83;;
26588;SDS011;14235;48.532;8.722;2023-12-28T03:41:52;5.93;;;4.20;;
26588;SDS011;14235;48.532;8.722;2023-12-28T03:44:18;4.97;;;3.80;;
26588;SDS011;14235;48.532;8.722;2023-12-28T03:46:45;5.80;;;4.00;;
26588;SDS011;14235;48.532;8.722;2023-12-28T03:49:12;5.77;;;4.20;;
26588;SDS011;14235;48.532;8.722;2023-12-28T03:51:39;6.13;;;3.77;;
26588;SDS011;14235;48.532;8.722;2023-12-28T03:54:05;7.03;;;4.70;;
26588;SDS011;14235;48.532;8.722;2023-12-28T03:56:31;7.00;;;4.38;;
26588;SDS011;14235;48.532;8.722;2023-12-28T03:58:58;7.47;;;4.73;;
26588;SDS011;14235;48.532;8.722;2023-12-28T04:01:23;4.87;;;4.00;;
26588;SDS011;14235;48.532;8.722;2023-12-28T04:03:49;6.50;;;4.20;;
26588;SDS011;14235;48.532;8.722;2023-12-28T04:06:14;5.57;;;4.00;;
26588;SDS011;14235;48.532;8.722;2023-12-28T04:08:41;5.23;;;3.90;;
26588;SDS011;14235;48.532;8.722;2023-12-28T04:11:07;4.63;;;3.93;;
26588;SDS011;14235;48.532;8.722;2023-12-28T04:13:33;4.53;;;3.57;;
26588;SDS011;14235;48.532;8.722;2023-12-28T04:15:58;7.55;;;3.80;;
26588;SDS011;14235;48.532;8.722;2023-12-28T04:18:24;6.03;;;3.87;;
26588;SDS011;14235;48.532;8.722;2023-12-28T04:20:49;6.35;;;4.75;;
26588;SDS011;14235;48.532;8.722;2023-12-28T04:23:15;5.30;;;3.80;;
26588;SDS011;14235;48.532;8.722;2023-12-28T04:25:41;5.13;;;3.75;;
26588;SDS011;14235;48.532;8.722;2023-12-28T04:28:06;5.53;;;3.83;;
26588;SDS011;14235;48.532;8.722;2023-12-28T04:30:33;5.10;;;3.57;;
26588;SDS011;14235;48.532;8.722;2023-12-28T04:33:02;4.77;;;3.87;;
26588;SDS011;14235;48.532;8.722;2023-12-28T04:35:28;6.28;;;4.38;;
26588;SDS011;14235;48.532;8.722;2023-12-28T04:37:54;7.20;;;4.43;;
26588;SDS011;14235;48.532;8.722;2023-12-28T04:40:19;5.93;;;4.00;;
26588;SDS011;14235;48.532;8.722;2023-12-28T04:42:45;6.05;;;3.80;;
26588;SDS011;14235;48.532;8.722;2023-12-28T04:45:11;4.50;;;3.90;;
26588;SDS011;14235;48.532;8.722;2023-12-28T04:47:37;5.23;;;4.20;;
26588;SDS011;14235;48.532;8.722;2023-12-28T04:50:03;9.40;;;4.57;;
26588;SDS011;14235;48.532;8.722;2023-12-28T04:52:29;4.33;;;3.80;;
26588;SDS011;14235;48.532;8.722;2023-12-28T04:54:55;5.75;;;4.40;;
26588;SDS011;14235;48.532;8.722;2023-12-28T04:57:21;4.38;;;3.92;;
26588;SDS011;14235;48.532;8.722;2023-12-28T04:59:49;5.10;;;4.23;;
26588;SDS011;14235;48.532;8.722;2023-12-28T05:02:14;7.30;;;4.40;;
26588;SDS011;14235;48.532;8.722;2023-12-28T05:04:40;5.73;;;4.33;;
26588;SDS011;14235;48.532;8.722;2023-12-28T05:07:06;4.90;;;4.03;;
26588;SDS011;14235;48.532;8.722;2023-12-28T05:09:31;6.10;;;4.10;;
26588;SDS011;14235;48.532;8.722;2023-12-28T05:11:57;5.40;;;3.92;;
26588;SDS011;14235;48.532;8.722;2023-12-28T05:14:22;5.15;;;3.53;;
26588;SDS011;14235;48.532;8.722;2023-12-28T05:16:48;5.05;;;3.55;;
26588;SDS011;14235;48.532;8.722;2023-12-28T05:19:14;4.15;;;3.25;;
26588;SDS011;14235;48.532;8.722;2023-12-28T05:21:39;5.88;;;3.40;;
26588;SDS011;14235;48.532;8.722;2023-12-28T05:24:05;4.97;;;3.75;;
26588;SDS011;14235;48.532;8.722;2023-12-28T05:26:30;4.07;;;3.33;;
26588;SDS011;14235;48.532;8.722;2023-12-28T05:28:56;6.22;;;3.58;;
26588;SDS011;14235;48.532;8.722;2023-12-28T05:31:21;4.97;;;3.58;;
26588;SDS011;14235;48.532;8.722;2023-12-28T05:33:47;4.18;;;3.60;;
26588;SDS011;14235;48.532;8.722;2023-12-28T05:36:13;4.40;;;4.00;;
26588;SDS011;14235;48.532;8.722;2023-12-28T05:38:38;8.73;;;6.90;;
26588;SDS011;14235;48.532;8.722;2023-12-28T05:41:04;11.77;;;8.13;;
26588;SDS011;14235;48.532;8.722;2023-12-28T05:43:29;11.20;;;7.63;;
26588;SDS011;14235;48.532;8.722;2023-12-28T05:45:55;7.70;;;5.28;;
26588;SDS011;14235;48.532;8.722;2023-12-28T05:48:20;4.88;;;3.90;;
26588;SDS011;14235;48.532;8.722;2023-12-28T05:50:46;5.65;;;4.45;;
26588;SDS011;14235;48.532;8.722;2023-12-28T05:53:12;5.55;;;4.40;;
26588;SDS011;14235;48.532;8.722;2023-12-28T05:55:42;6.93;;;4.88;;
26588;SDS011;14235;48.532;8.722;2023-12-28T05:58:08;5.13;;;4.00;;
26588;SDS011;14235;48.532;8.722;2023-12-28T06:00:36;4.32;;;3.60;;
26588;SDS011;14235;48.532;8.722;2023-12-28T06:03:04;6.05;;;3.88;;
26588;SDS011;14235;48.532;8.722;2023-12-28T06:05:30;4.15;;;3.15;;
26588;SDS011;14235;48.532;8.722;2023-12-28T06:07:56;7.15;;;5.07;;
26588;SDS011;14235;48.532;8.722;2023-12-28T06:10:21;6.47;;;4.90;;
26588;SDS011;14235;48.532;8.722;2023-12-28T06:12:47;4.97;;;4.17;;
26588;SDS011;14235;48.532;8.722;2023-12-28T06:15:12;8.18;;;5.72;;
26588;SDS011;14235;48.532;8.722;2023-12-28T06:17:38;5.73;;;4.70;;
26588;SDS011;14235;48.532;8.722;2023-12-28T06:20:04;7.63;;;4.97;;
26588;SDS011;14235;48.532;8.722;2023-12-28T06:22:30;5.65;;;4.65;;
26588;SDS011;14235;48.532;8.722;2023-12-28T06:24:55;7.93;;;6.32;;
26588;SDS011;14235;48.532;8.722;2023-12-28T06:27:22;18.50;;;12.70;;
26588;SDS011;14235;48.532;8.722;2023-12-28T06:29:50;15.98;;;11.52;;
26588;SDS011;14235;48.532;8.722;2023-12-28T06:32:16;13.07;;;9.30;;
26588;SDS011;14235;48.532;8.722;2023-12-28T06:34:41;9.63;;;7.47;;
26588;SDS011;14235;48.532;8.722;2023-12-28T06:37:07;8.35;;;6.03;;
26588;SDS011;14235;48.532;8.722;2023-12-28T06:39:32;6.07;;;5.10;;
26588;SDS011;14235;48.532;8.722;2023-12-28T06:41:58;5.07;;;4.57;;
26588;SDS011;14235;48.532;8.722;2023-12-28T06:44:23;5.40;;;4.22;;
26588;SDS011;14235;48.532;8.722;2023-12-28T06:46:49;8.10;;;5.97;;
26588;SDS011;14235;48.532;8.722;2023-12-28T06:49:15;6.05;;;5.45;;
26588;SDS011;14235;48.532;8.722;2023-12-28T06:51:40;6.57;;;5.95;;
26588;SDS011;14235;48.532;8.722;2023-12-28T06:54:07;6.95;;;6.25;;
26588;SDS011;14235;48.532;8.722;2023-12-28T06:56:34;6.63;;;6.00;;
26588;SDS011;14235;48.532;8.722;2023-12-28T06:58:59;5.72;;;5.22;;
26588;SDS011;14235;48.532;8.722;2023-12-28T07:01:25;4.63;;;4.20;;
26588;SDS011;14235;48.532;8.722;2023-12-28T07:03:50;5.15;;;4.75;;
26588;SDS011;14235;48.532;8.722;2023-12-28T07:06:17;5.45;;;4.90;;
26588;SDS011;14235;48.532;8.722;2023-12-28T07:08:42;5.95;;;5.07;;
26588;SDS011;14235;48.532;8.722;2023-12-28T07:11:11;4.82;;;4.32;;
26588;SDS011;14235;48.532;8.722;2023-12-28T07:13:36;5.22;;;4.70;;
26588;SDS011;14235;48.532;8.722;2023-12-28T07:16:02;4.18;;;3.85;;
26588;SDS011;14235;48.532;8.722;2023-12-28T07:18:28;4.18;;;3.78;;
26588;SDS011;14235;48.532;8.722;2023-12-28T07:20:54;4.25;;;3.80;;
26588;SDS011;14235;48.532;8.722;2023-12-28T07:23:20;4.25;;;3.85;;
26588;SDS011;14235;48.532;8.722;2023-12-28T07:25:45;5.07;;;3.70;;
26588;SDS011;14235;48.532;8.722;2023-12-28T07:28:11;4.28;;;3.88;;
26588;SDS011;14235;48.532;8.722;2023-12-28T07:30:37;4.00;;;3.40;;
26588;SDS011;14235;48.532;8.722;2023-12-28T07:33:03;4.80;;;3.92;;
26588;SDS011;14235;48.532;8.722;2023-12-28T07:35:29;4.95;;;4.45;;
26588;SDS011;14235;48.532;8.722;2023-12-28T07:37:54;5.20;;;4.20;;
26588;SDS011;14235;48.532;8.722;2023-12-28T07:40:20;5.15;;;3.53;;
26588;SDS011;14235;48.532;8.722;2023-12-28T07:42:46;7.50;;;5.95;;
26588;SDS011;14235;48.532;8.722;2023-12-28T07:45:11;5.57;;;4.85;;
26588;SDS011;14235;48.532;8.722;2023-12-28T07:47:37;6.70;;;4.47;;
26588;SDS011;14235;48.532;8.722;2023-12-28T07:50:02;4.15;;;3.70;;
26588;SDS011;14235;48.532;8.722;2023-12-28T07:52:29;7.82;;;4.40;;
26588;SDS011;14235;48.532;8.722;2023-12-28T07:54:54;5.03;;;4.05;;
26588;SDS011;14235;48.532;8.722;2023-12-28T07:57:20;5.28;;;4.07;;
26588;SDS011;14235;48.532;8.722;2023-12-28T07:59:46;5.28;;;4.50;;
26588;SDS011;14235;48.532;8.722;2023-12-28T08:02:12;5.30;;;4.13;;
26588;SDS011;14235;48.532;8.722;2023-12-28T08:04:37;5.55;;;4.00;;
26588;SDS011;14235;48.532;8.722;2023-12-28T08:07:03;6.47;;;3.78;;
26588;SDS011;14235;48.532;8.722;2023-12-28T08:09:29;4.95;;;4.30;;
26588;SDS011;14235;48.532;8.722;2023-12-28T08:11:55;5.10;;;4.43;;
26588;SDS011;14235;48.532;8.722;2023-12-28T08:14:21;5.30;;;4.43;;
26588;SDS011;14235;48.532;8.722;2023-12-28T08:16:46;8.63;;;5.45;;
26588;SDS011;14235;48.532;8.722;2023-12-28T08:19:12;6.78;;;6.07;;
26588;SDS011;14235;48.532;8.722;2023-12-28T08:21:38;4.38;;;3.42;;
26588;SDS011;14235;48.532;8.722;2023-12-28T08:24:03;5.10;;;4.15;;
26588;SDS011;14235;48.532;8.722;2023-12-28T08:26:29;11.65;;;7.65;;
26588;SDS011;14235;48.532;8.722;2023-12-28T08:28:55;2.60;;;2.40;;
26588;SDS011;14235;48.532;8.722;2023-12-28T08:31:20;3.22;;;2.65;;
26588;SDS011;14235;48.532;8.722;2023-12-28T08:33:46;3.58;;;2.53;;
26588;SDS011;14235;48.532;8.722;2023-12-28T08:36:11;4.80;;;2.58;;
26588;SDS011;14235;48.532;8.722;2023-12-28T08:38:37;2.90;;;2.55;;
26588;SDS011;14235;48.532;8.722;2023-12-28T08:41:03;3.55;;;3.15;;
26588;SDS011;14235;48.532;8.722;2023-12-28T08:43:33;4.15;;;3.75;;
26588;SDS011;14235;48.532;8.722;2023-12-28T08:46:00;3.85;;;3.13;;
26588;SDS011;14235;48.532;8.722;2023-12-28T08:48:25;3.25;;;2.95;;
26588;SDS011;14235;48.532;8.722;2023-12-28T08:50:51;5.22;;;3.15;;
26588;SDS011;14235;48.532;8.722;2023-12-28T08:53:16;3.65;;;3.35;;
26588;SDS011;14235;48.532;8.722;2023-12-28T08:55:42;4.35;;;2.55;;
26588;SDS011;14235;48.532;8.722;2023-12-28T08:58:07;2.08;;;1.88;;
26588;SDS011;14235;48.532;8.722;2023-12-28T09:00:33;2.13;;;1.92;;
26588;SDS011;14235;48.532;8.722;2023-12-28T09:02:59;3.67;;;1.88;;
26588;SDS011;14235;48.532;8.722;2023-12-28T09:05:24;2.65;;;2.42;;
26588;SDS011;14235;48.532;8.722;2023-12-28T09:07:50;3.00;;;2.70;;
26588;SDS011;14235;48.532;8.722;2023-12-28T09:10:15;2.90;;;2.35;;
26588;SDS011;14235;48.532;8.722;2023-12-28T09:12:41;2.08;;;1.95;;
26588;SDS011;14235;48.532;8.722;2023-12-28T09:15:07;1.90;;;1.80;;
26588;SDS011;14235;48.532;8.722;2023-12-28T09:17:33;2.53;;;2.10;;
26588;SDS011;14235;48.532;8.722;2023-12-28T09:19:59;4.30;;;2.15;;
26588;SDS011;14235;48.532;8.722;2023-12-28T09:22:31;2.35;;;2.15;;
26588;SDS011;14235;48.532;8.722;2023-12-28T09:24:57;2.33;;;2.10;;
26588;SDS011;14235;48.532;8.722;2023-12-28T09:27:22;3.00;;;2.63;;
26588;SDS011;14235;48.532;8.722;2023-12-28T09:29:48;2.75;;;2.55;;
26588;SDS011;14235;48.532;8.722;2023-12-28T09:32:13;4.25;;;3.10;;
26588;SDS011;14235;48.532;8.722;2023-12-28T09:34:39;2.88;;;2.15;;
26588;SDS011;14235;48.532;8.722;2023-12-28T09:37:05;2.08;;;1.92;;
26588;SDS011;14235;48.532;8.722;2023-12-28T09:39:31;2.25;;;1.95;;
26588;SDS011;14235;48.532;8.722;2023-12-28T09:42:00;2.17;;;1.80;;
26588;SDS011;14235;48.532;8.722;2023-12-28T09:44:31;2.05;;;1.90;;
26588;SDS011;14235;48.532;8.722;2023-12-28T09:46:58;3.05;;;2.08;;
26588;SDS011;14235;48.532;8.722;2023-12-28T09:49:24;2.40;;;1.80;;
26588;SDS011;14235;48.532;8.722;2023-12-28T09:51:50;1.65;;;1.55;;
26588;SDS011;14235;48.532;8.722;2023-12-28T09:54:16;2.13;;;1.30;;
26588;SDS011;14235;48.532;8.722;2023-12-28T09:56:43;1.83;;;1.30;;
26588;SDS011;14235;48.532;8.722;2023-12-28T09:59:10;1.48;;;1.38;;
26588;SDS011;14235;48.532;8.722;2023-12-28T10:01:36;3.53;;;1.55;;
26588;SDS011;14235;48.532;8.722;2023-12-28T10:04:02;2.10;;;1.65;;
26588;SDS011;14235;48.532;8.722;2023-12-28T10:06:28;1.98;;;1.58;;
26588;SDS011;14235;48.532;8.722;2023-12-28T10:08:54;1.83;;;1.50;;
26588;SDS011;14235;48.532;8.722;2023-12-28T10:11:21;2.25;;;1.70;;
26588;SDS011;14235;48.532;8.722;2023-12-28T10:13:48;1.60;;;1.50;;
26588;SDS011;14235;48.532;8.722;2023-12-28T10:16:15;1.88;;;1.27;;
26588;SDS011;14235;48.532;8.722;2023-12-28T10:18:44;2.58;;;1.45;;
26588;SDS011;14235;48.532;8.722;2023-12-28T10:21:10;1.48;;;1.38;;
26588;SDS011;14235;48.532;8.722;2023-12-28T10:23:37;2.75;;;1.38;;
26588;SDS011;14235;48.532;8.722;2023-12-28T10:26:04;2.45;;;1.60;;
26588;SDS011;14235;48.532;8.722;2023-12-28T10:28:34;1.33;;;1.30;;
26588;SDS011;14235;48.532;8.722;2023-12-28T10:31:03;1.77;;;1.52;;
26588;SDS011;14235;48.532;8.722;2023-12-28T10:33:33;1.77;;;1.63;;
26588;SDS011;14235;48.532;8.722;2023-12-28T10:36:04;1.92;;;1.70;;
26588;SDS011;14235;48.532;8.722;2023-12-28T10:38:35;2.63;;;2.30;;
26588;SDS011;14235;48.532;8.722;2023-12-28T10:41:02;1.65;;;1.52;;
26588;SDS011;14235;48.532;8.722;2023-12-28T10:43:31;1.75;;;1.55;;
26588;SDS011;14235;48.532;8.722;2023-12-28T10:46:22;1.80;;;1.70;;
26588;SDS011;14235;48.532;8.722;2023-12-28T10:49:00;1.80;;;1.70;;
26588;SDS011;14235;48.532;8.722;2023-12-28T10:51:38;1.70;;;1.60;;
26588;SDS011;14235;48.532;8.722;2023-12-28T10:57:11;2.80;;;2.42;;
26588;SDS011;14235;48.532;8.722;2023-12-28T11:02:19;2.08;;;1.90;;
26588;SDS011;14235;48.532;8.722;2023-12-28T11:04:49;2.17;;;2.03;;
26588;SDS011;14235;48.532;8.722;2023-12-28T11:07:17;3.45;;;2.00;;
26588;SDS011;14235;48.532;8.722;2023-12-28T11:09:43;2.30;;;2.17;;
26588;SDS011;14235;48.532;8.722;2023-12-28T11:12:10;3.22;;;2.30;;
26588;SDS011;14235;48.532;8.722;2023-12-28T11:14:39;3.10;;;2.60;;
26588;SDS011;14235;48.532;8.722;2023-12-28T11:17:06;3.47;;;2.55;;
26588;SDS011;14235;48.532;8.722;2023-12-28T11:19:32;2.30;;;2.10;;
26588;SDS011;14235;48.532;8.722;2023-12-28T11:21:59;3.78;;;3.45;;
26588;SDS011;14235;48.532;8.722;2023-12-28T11:24:27;4.28;;;3.35;;
26588;SDS011;14235;48.532;8.722;2023-12-28T11:26:54;2.30;;;2.10;;
26588;SDS011;14235;48.532;8.722;2023-12-28T11:29:20;3.67;;;2.15;;
26588;SDS011;14235;48.532;8.722;2023-12-28T11:31:59;2.40;;;2.20;;
26588;SDS011;14235;48.532;8.722;2023-12-28T11:34:28;5.78;;;3.20;;
26588;SDS011;14235;48.532;8.722;2023-12-28T11:36:56;3.92;;;2.90;;
26588;SDS011;14235;48.532;8.722;2023-12-28T11:39:33;3.90;;;3.60;;
26588;SDS011;14235;48.532;8.722;2023-12-28T11:42:04;3.55;;;3.10;;
26588;SDS011;14235;48.532;8.722;2023-12-28T11:44:40;8.43;;;6.75;;
26588;SDS011;14235;48.532;8.722;2023-12-28T11:49:39;3.75;;;3.45;;
26588;SDS011;14235;48.532;8.722;2023-12-28T11:52:05;4.43;;;3.58;;
26588;SDS011;14235;48.532;8.722;2023-12-28T11:54:32;8.05;;;5.78;;
26588;SDS011;14235;48.532;8.722;2023-12-28T11:56:58;4.90;;;3.60;;
26588;SDS011;14235;48.532;8.722;2023-12-28T11:59:23;3.08;;;2.47;;
26588;SDS011;14235;48.532;8.722;2023-12-28T12:01:52;2.58;;;2.38;;
26588;SDS011;14235;48.532;8.722;2023-12-28T12:04:18;2.47;;;2.22;;
26588;SDS011;14235;48.532;8.722;2023-12-28T12:06:45;2.50;;;2.30;;
26588;SDS011;14235;48.532;8.722;2023-12-28T12:09:15;1.73;;;1.63;;
26588;SDS011;14235;48.532;8.722;2023-12-28T12:11:41;2.90;;;1.60;;
26588;SDS011;14235;48.532;8.722;2023-12-28T12:14:10;2.05;;;1.67;;
26588;SDS011;14235;48.532;8.722;2023-12-28T12:16:37;1.77;;;1.60;;
26588;SDS011;14235;48.532;8.722;2023-12-28T12:19:06;2.50;;;2.30;;
26588;SDS011;14235;48.532;8.722;2023-12-28T12:21:33;2.53;;;2.33;;
26588;SDS011;14235;48.532;8.722;2023-12-28T12:23:59;2.10;;;1.50;;
26588;SDS011;14235;48.532;8.722;2023-12-28T12:26:25;1.80;;;1.70;;
26588;SDS011;14235;48.532;8.722;2023-12-28T12:28:52;1.75;;;1.65;;
26588;SDS011;14235;48.532;8.722;2023-12-28T12:31:17;1.92;;;1.50;;
26588;SDS011;14235;48.532;8.722;2023-12-28T12:33:44;1.83;;;1.45;;
26588;SDS011;14235;48.532;8.722;2023-12-28T12:36:10;1.80;;;1.70;;
26588;SDS011;14235;48.532;8.722;2023-12-28T12:38:36;2.28;;;2.00;;
26588;SDS011;14235;48.532;8.722;2023-12-28T12:41:01;1.73;;;1.63;;
26588;SDS011;14235;48.532;8.722;2023-12-28T12:43:27;1.75;;;1.65;;
26588;SDS011;14235;48.532;8.722;2023-12-28T12:45:53;1.70;;;1.60;;
26588;SDS011;14235;48.532;8.722;2023-12-28T12:48:19;1.50;;;1.40;;
26588;SDS011;14235;48.532;8.722;2023-12-28T12:50:45;2.35;;;1.70;;
26588;SDS011;14235;48.532;8.722;2023-12-28T12:53:10;1.70;;;1.60;;
26588;SDS011;14235;48.532;8.722;2023-12-28T12:55:37;2.88;;;1.70;;
26588;SDS011;14235;48.532;8.722;2023-12-28T12:58:07;1.73;;;1.63;;
26588;SDS011;14235;48.532;8.722;2023-12-28T13:00:34;2.35;;;1.70;;
26588;SDS011;14235;48.532;8.722;2023-12-28T13:03:00;1.98;;;1.52;;
26588;SDS011;14235;48.532;8.722;2023-12-28T13:05:26;1.80;;;1.70;;
26588;SDS011;14235;48.532;8.722;2023-12-28T13:07:53;1.85;;;1.75;;
26588;SDS011;14235;48.532;8.722;2023-12-28T13:10:19;1.75;;;1.60;;
26588;SDS011;14235;48.532;8.722;2023-12-28T13:12:45;2.03;;;1.65;;
26588;SDS011;14235;48.532;8.722;2023-12-28T13:15:10;2.30;;;1.52;;
26588;SDS011;14235;48.532;8.722;2023-12-28T13:17:36;1.75;;;1.65;;
26588;SDS011;14235;48.532;8.722;2023-12-28T13:20:02;1.65;;;1.55;;
26588;SDS011;14235;48.532;8.722;2023-12-28T13:22:31;3.28;;;1.67;;
26588;SDS011;14235;48.532;8.722;2023-12-28T13:24:58;2.40;;;2.15;;
26588;SDS011;14235;48.532;8.722;2023-12-28T13:27:23;1.80;;;1.70;;
26588;SDS011;14235;48.532;8.722;2023-12-28T13:29:49;2.08;;;1.90;;
26588;SDS011;14235;48.532;8.722;2023-12-28T13:32:15;3.08;;;2.00;;
26588;SDS011;14235;48.532;8.722;2023-12-28T13:34:41;3.72;;;2.40;;
26588;SDS011;14235;48.532;8.722;2023-12-28T13:37:07;3.38;;;2.70;;
26588;SDS011;14235;48.532;8.722;2023-12-28T13:39:40;2.63;;;2.25;;
26588;SDS011;14235;48.532;8.722;2023-12-28T13:42:06;2.10;;;1.90;;
26588;SDS011;14235;48.532;8.722;2023-12-28T13:44:35;2.35;;;2.17;;
26588;SDS011;14235;48.532;8.722;2023-12-28T13:47:02;3.70;;;2.50;;
26588;SDS011;14235;48.532;8.722;2023-12-28T13:49:28;2.60;;;2.03;;
26588;SDS011;14235;48.532;8.722;2023-12-28T13:51:54;2.83;;;2.47;;
26588;SDS011;14235;48.532;8.722;2023-12-28T13:54:20;2.33;;;2.13;;
26588;SDS011;14235;48.532;8.722;2023-12-28T13:56:47;3.55;;;2.50;;
26588;SDS011;14235;48.532;8.722;2023-12-28T13:59:13;4.30;;;2.33;;
26588;SDS011;14235;48.532;8.722;2023-12-28T14:01:39;2.35;;;2.10;;
26588;SDS011;14235;48.532;8.722;2023-12-28T14:04:05;3.33;;;2.33;;
26588;SDS011;14235;48.532;8.722;2023-12-28T14:06:32;3.03;;;2.53;;
26588;SDS011;14235;48.532;8.722;2023-12-28T14:08:58;3.80;;;2.47;;
26588;SDS011;14235;48.532;8.722;2023-12-28T14:11:24;2.47;;;2.28;;
26588;SDS011;14235;48.532;8.722;2023-12-28T14:13:50;2.63;;;2.42;;
26588;SDS011;14235;48.532;8.722;2023-12-28T14:16:16;2.92;;;2.50;;
26588;SDS011;14235;48.532;8.722;2023-12-28T14:18:42;3.42;;;2.28;;
26588;SDS011;14235;48.532;8.722;2023-12-28T14:21:08;3.30;;;2.50;;
26588;SDS011;14235;48.532;8.722;2023-12-28T14:23:35;3.92;;;2.50;;
26588;SDS011;14235;48.532;8.722;2023-12-28T14:26:04;2.60;;;2.40;;
26588;SDS011;14235;48.532;8.722;2023-12-28T14:28:42;3.08;;;2.63;;
26588;SDS011;14235;48.532;8.722;2023-12-28T14:31:11;2.60;;;2.40;;
26588;SDS011;14235;48.532;8.722;2023-12-28T14:33:37;2.30;;;2.15;;
26588;SDS011;14235;48.532;8.722;2023-12-28T14:38:42;2.75;;;2.53;;
26588;SDS011;14235;48.532;8.722;2023-12-28T14:41:08;2.53;;;2.33;;
26588;SDS011;14235;48.532;8.722;2023-12-28T14:43:34;2.72;;;2.38;;
26588;SDS011;14235;48.532;8.722;2023-12-28T14:46:00;2.90;;;2.70;;
26588;SDS011;14235;48.532;8.722;2023-12-28T14:48:26;2.97;;;2.67;;
26588;SDS011;14235;48.532;8.722;2023-12-28T14:50:52;2.30;;;2.10;;
26588;SDS011;14235;48.532;8.722;2023-12-28T14:53:18;2.75;;;2.55;;
26588;SDS011;14235;48.532;8.722;2023-12-28T14:55:44;3.15;;;2.50;;
26588;SDS011;14235;48.532;8.722;2023-12-28T14:58:10;3.50;;;2.53;;